createdAt,value
2018-12-23T00:02:13.557Z,3.42
2018-12-23T00:04:41.102Z,3.83
2018-12-23T00:07:08.630Z,4.80
2018-12-23T00:09:36.190Z,3.90
2018-12-23T00:12:03.722Z,3.87
2018-12-23T00:14:31.266Z,4.15
2018-12-23T00:16:58.878Z,4.35
2018-12-23T00:19:26.434Z,3.35
2018-12-23T00:21:53.970Z,3.72
2018-12-23T00:24:21.514Z,3.67
2018-12-23T00:26:49.041Z,4.17
2018-12-23T00:29:16.582Z,4.22
2018-12-23T00:31:44.115Z,3.50
2018-12-23T00:34:11.664Z,3.92
2018-12-23T00:36:39.194Z,3.87
2018-12-23T00:39:06.777Z,3.95
2018-12-23T00:41:36.610Z,5.12
2018-12-23T00:44:04.038Z,4.72
2018-12-23T00:46:31.571Z,4.30
2018-12-23T00:48:59.130Z,4.53
2018-12-23T00:51:26.698Z,4.85
2018-12-23T00:53:54.266Z,5.37
2018-12-23T00:56:21.789Z,4.50
2018-12-23T00:58:49.323Z,4.50
2018-12-23T01:01:16.960Z,4.78
2018-12-23T01:03:44.486Z,3.83
2018-12-23T01:06:12.076Z,4.35
2018-12-23T01:08:39.602Z,5.10
2018-12-23T01:11:07.145Z,4.60
2018-12-23T01:13:34.670Z,4.20
2018-12-23T01:16:02.218Z,5.03
2018-12-23T01:18:29.741Z,5.35
2018-12-23T01:20:57.383Z,4.75
2018-12-23T01:23:24.975Z,4.35
2018-12-23T01:25:52.566Z,5.30
2018-12-23T01:28:20.094Z,4.65
2018-12-23T01:30:47.681Z,4.10
2018-12-23T01:33:15.214Z,4.90
2018-12-23T01:35:42.770Z,4.28
2018-12-23T01:38:10.293Z,4.45
2018-12-23T01:40:37.882Z,6.12
2018-12-23T01:43:05.405Z,4.80
2018-12-23T01:45:33.002Z,4.60
2018-12-23T01:48:00.531Z,3.60
2018-12-23T01:50:28.078Z,3.62
2018-12-23T01:52:55.612Z,3.83
2018-12-23T01:55:23.158Z,3.55
2018-12-23T01:57:50.693Z,4.70
2018-12-23T02:00:18.282Z,3.83
2018-12-23T02:02:45.806Z,4.05
2018-12-23T02:05:13.411Z,4.70
2018-12-23T02:07:40.938Z,3.85
2018-12-23T02:10:08.524Z,4.20
2018-12-23T02:12:36.058Z,4.20
2018-12-23T02:15:03.686Z,4.62
2018-12-23T02:17:31.251Z,4.40
2018-12-23T02:19:58.896Z,3.67
2018-12-23T02:22:26.507Z,4.15
2018-12-23T02:24:54.049Z,3.77
2018-12-23T02:27:21.576Z,3.77
2018-12-23T02:29:49.162Z,3.60
2018-12-23T02:32:16.685Z,2.67
2018-12-23T02:34:44.230Z,3.70
2018-12-23T02:37:11.754Z,3.70
2018-12-23T02:39:39.307Z,3.83
2018-12-23T02:42:06.856Z,3.37
2018-12-23T02:44:34.426Z,3.95
2018-12-23T02:47:01.974Z,3.47
2018-12-23T02:49:29.548Z,4.00
2018-12-23T02:51:57.099Z,4.25
2018-12-23T02:54:24.661Z,4.95
2018-12-23T02:56:52.202Z,4.78
2018-12-23T02:59:19.735Z,5.37
2018-12-23T03:01:47.281Z,7.20
2018-12-23T03:04:14.835Z,7.05
2018-12-23T03:06:42.487Z,6.65
2018-12-23T03:09:10.015Z,7.60
2018-12-23T03:11:37.578Z,6.87
2018-12-23T03:14:05.146Z,7.05
2018-12-23T03:16:32.734Z,6.28
2018-12-23T03:19:00.275Z,5.55
2018-12-23T03:21:27.864Z,4.85
2018-12-23T03:23:55.390Z,6.15
2018-12-23T03:26:22.947Z,5.60
2018-12-23T03:28:50.477Z,6.25
2018-12-23T03:31:18.041Z,5.85
2018-12-23T03:33:45.692Z,6.17
2018-12-23T03:36:15.372Z,7.03
2018-12-23T03:38:42.867Z,7.40
2018-12-23T03:41:10.420Z,7.22
2018-12-23T03:43:37.959Z,8.45
2018-12-23T03:46:05.506Z,7.60
2018-12-23T03:48:33.038Z,8.55
2018-12-23T03:51:00.592Z,8.60
2018-12-23T03:53:28.130Z,7.45
2018-12-23T03:55:55.673Z,7.33
2018-12-23T03:58:23.202Z,9.15
2018-12-23T04:00:50.754Z,8.03
2018-12-23T04:03:18.290Z,7.37
2018-12-23T04:05:45.846Z,7.47
2018-12-23T04:08:13.418Z,7.17
2018-12-23T04:10:40.969Z,6.97
2018-12-23T04:13:08.512Z,6.55
2018-12-23T04:15:36.141Z,7.05
2018-12-23T04:18:03.667Z,7.15
2018-12-23T04:20:31.249Z,6.30
2018-12-23T04:22:58.785Z,6.20
2018-12-23T04:25:26.326Z,6.78
2018-12-23T04:27:53.880Z,6.67
2018-12-23T04:30:21.418Z,6.95
2018-12-23T04:32:48.971Z,7.42
2018-12-23T04:35:16.499Z,7.92
2018-12-23T04:37:44.055Z,6.67
2018-12-23T04:40:11.670Z,6.85
2018-12-23T04:42:39.267Z,7.30
2018-12-23T04:45:06.880Z,7.53
2018-12-23T04:47:34.441Z,8.40
2018-12-23T04:50:02.020Z,8.40
2018-12-23T04:52:29.574Z,7.28
2018-12-23T04:54:57.109Z,7.20
2018-12-23T04:57:24.659Z,7.20
2018-12-23T04:59:52.259Z,7.70
2018-12-23T05:02:19.914Z,7.15
2018-12-23T05:04:47.443Z,7.72
2018-12-23T05:07:15.007Z,8.28
2018-12-23T05:09:42.538Z,8.08
2018-12-23T05:12:10.095Z,7.75
2018-12-23T05:14:37.625Z,8.00
2018-12-23T05:17:05.169Z,8.05
2018-12-23T05:19:32.702Z,7.62
2018-12-23T05:22:00.252Z,7.67
2018-12-23T05:24:27.783Z,8.15
2018-12-23T05:26:55.338Z,6.75
2018-12-23T05:29:22.862Z,7.67
2018-12-23T05:31:50.411Z,8.58
2018-12-23T05:34:17.947Z,8.43
2018-12-23T05:36:52.323Z,8.13
2018-12-23T05:39:15.066Z,7.90
2018-12-23T05:41:42.610Z,8.38
2018-12-23T05:44:10.150Z,7.72
2018-12-23T05:46:37.710Z,8.00
2018-12-23T05:49:05.351Z,8.30
2018-12-23T05:51:33.015Z,8.70
2018-12-23T05:54:00.550Z,7.05
2018-12-23T05:56:28.143Z,7.30
2018-12-23T05:58:55.683Z,6.67
2018-12-23T06:01:23.236Z,7.03
2018-12-23T06:03:50.770Z,7.90
2018-12-23T06:06:18.317Z,7.03
2018-12-23T06:08:45.865Z,8.73
2018-12-23T06:11:13.397Z,5.80
2018-12-23T06:13:40.945Z,7.15
2018-12-23T06:16:08.483Z,5.65
2018-12-23T06:18:36.106Z,5.87
2018-12-23T06:21:03.630Z,6.00
2018-12-23T06:23:31.178Z,5.70
2018-12-23T06:25:58.715Z,5.22
2018-12-23T06:28:26.274Z,6.20
2018-12-23T06:30:53.806Z,5.85
2018-12-23T06:33:21.372Z,5.80
2018-12-23T06:35:48.902Z,5.40
2018-12-23T06:38:16.463Z,5.67
2018-12-23T06:40:44.043Z,5.97
2018-12-23T06:43:11.590Z,5.75
2018-12-23T06:45:39.118Z,5.45
2018-12-23T06:48:06.674Z,5.60
2018-12-23T06:50:34.210Z,6.62
2018-12-23T06:53:01.758Z,4.95
2018-12-23T06:55:29.290Z,5.05
2018-12-23T06:57:56.834Z,5.95
2018-12-23T07:00:24.367Z,6.25
2018-12-23T07:02:51.930Z,5.58
2018-12-23T07:05:19.475Z,6.72
2018-12-23T07:07:47.031Z,6.72
2018-12-23T07:10:14.559Z,7.72
2018-12-23T07:12:42.151Z,6.72
2018-12-23T07:15:09.686Z,5.80
2018-12-23T07:17:37.240Z,5.53
2018-12-23T07:20:05.217Z,5.30
2018-12-23T07:22:32.761Z,6.35
2018-12-23T07:25:00.314Z,5.83
2018-12-23T07:27:27.862Z,5.20
2018-12-23T07:29:55.385Z,5.40
2018-12-23T07:32:22.929Z,6.47
2018-12-23T07:34:50.464Z,5.33
2018-12-23T07:37:18.019Z,5.35
2018-12-23T07:39:45.550Z,7.03
2018-12-23T07:42:13.098Z,5.65
2018-12-23T07:44:40.622Z,5.37
2018-12-23T07:47:08.174Z,6.45
2018-12-23T07:49:35.706Z,6.25
2018-12-23T07:52:03.275Z,5.72
2018-12-23T07:54:30.903Z,6.00
2018-12-23T07:56:58.505Z,9.45
2018-12-23T07:59:26.058Z,9.60
2018-12-23T08:01:53.590Z,8.48
2018-12-23T08:04:21.137Z,8.88
2018-12-23T08:06:48.715Z,7.80
2018-12-23T08:09:16.364Z,6.75
2018-12-23T08:11:43.890Z,4.75
2018-12-23T08:14:11.447Z,5.12
2018-12-23T08:16:38.977Z,5.65
2018-12-23T08:19:06.521Z,5.28
2018-12-23T08:21:34.052Z,6.05
2018-12-23T08:24:01.598Z,6.60
2018-12-23T08:26:29.126Z,7.28
2018-12-23T08:28:56.686Z,7.30
2018-12-23T08:31:25.253Z,7.33
2018-12-23T08:33:52.802Z,4.90
2018-12-23T08:36:20.345Z,5.90
2018-12-23T08:38:47.899Z,5.15
2018-12-23T08:41:15.430Z,5.10
2018-12-23T08:43:42.983Z,4.72
2018-12-23T08:46:10.522Z,4.37
2018-12-23T08:48:38.075Z,4.80
2018-12-23T08:51:05.606Z,4.60
2018-12-23T08:53:33.150Z,4.78
2018-12-23T08:56:00.683Z,4.50
2018-12-23T08:58:28.233Z,4.95
2018-12-23T09:00:55.806Z,5.05
2018-12-23T09:03:23.358Z,4.92
2018-12-23T09:05:50.886Z,4.00
2018-12-23T09:08:18.430Z,4.40
2018-12-23T09:10:45.968Z,4.70
2018-12-23T09:13:13.518Z,4.00
2018-12-23T09:15:41.046Z,4.65
2018-12-23T09:18:08.609Z,4.62
2018-12-23T09:20:36.138Z,5.03
2018-12-23T09:23:03.681Z,4.65
2018-12-23T09:25:31.216Z,4.30
2018-12-23T09:27:58.766Z,4.47
2018-12-23T09:30:26.290Z,4.62
2018-12-23T09:32:53.834Z,3.75
2018-12-23T09:35:21.386Z,4.60
2018-12-23T09:37:48.919Z,3.85
2018-12-23T09:40:16.610Z,5.15
2018-12-23T09:42:44.143Z,3.72
2018-12-23T09:45:11.694Z,4.35
2018-12-23T09:47:39.221Z,4.30
2018-12-23T09:50:06.951Z,3.80
2018-12-23T09:52:34.483Z,3.65
2018-12-23T09:55:02.038Z,4.85
2018-12-23T09:57:29.566Z,3.60
2018-12-23T09:59:57.158Z,4.20
2018-12-23T10:02:24.686Z,3.80
2018-12-23T10:04:52.234Z,3.02
2018-12-23T10:07:19.763Z,3.55
2018-12-23T10:09:47.314Z,2.90
2018-12-23T10:12:14.845Z,3.00
2018-12-23T10:14:42.389Z,3.05
2018-12-23T10:17:09.914Z,3.33
2018-12-23T10:19:37.485Z,2.77
2018-12-23T10:22:05.014Z,3.50
2018-12-23T10:24:32.558Z,3.87
2018-12-23T10:27:00.091Z,3.70
2018-12-23T10:29:28.516Z,2.87
2018-12-23T10:31:56.199Z,2.90
2018-12-23T10:34:23.836Z,3.35
2018-12-23T10:36:51.362Z,3.12
2018-12-23T10:39:18.905Z,3.50
2018-12-23T10:41:46.430Z,3.67
2018-12-23T10:44:13.985Z,2.92
2018-12-23T10:46:41.521Z,3.30
2018-12-23T10:49:09.168Z,2.72
2018-12-23T10:51:36.706Z,2.83
2018-12-23T10:54:04.299Z,3.25
2018-12-23T10:56:31.832Z,3.70
2018-12-23T10:58:59.386Z,2.80
2018-12-23T11:01:26.919Z,2.60
2018-12-23T11:03:54.462Z,2.33
2018-12-23T11:06:21.990Z,2.40
2018-12-23T11:08:49.533Z,2.15
2018-12-23T11:11:17.262Z,2.20
2018-12-23T11:13:44.816Z,3.20
2018-12-23T11:16:12.347Z,2.33
2018-12-23T11:18:39.871Z,2.60
2018-12-23T11:21:07.458Z,2.80
2018-12-23T11:23:34.991Z,2.22
2018-12-23T11:26:02.538Z,2.20
2018-12-23T11:28:30.061Z,2.67
2018-12-23T11:30:57.622Z,2.40
2018-12-23T11:33:25.150Z,1.95
2018-12-23T11:35:52.704Z,2.27
2018-12-23T11:38:20.229Z,2.60
2018-12-23T11:40:47.777Z,2.47
2018-12-23T11:43:15.311Z,2.10
2018-12-23T11:45:42.862Z,2.17
2018-12-23T11:48:10.391Z,2.40
2018-12-23T11:50:37.947Z,3.35
2018-12-23T11:53:05.510Z,2.50
2018-12-23T11:55:33.098Z,2.00
2018-12-23T11:58:00.622Z,2.60
2018-12-23T12:00:28.175Z,2.35
2018-12-23T12:02:55.702Z,2.98
2018-12-23T12:05:23.329Z,2.40
2018-12-23T12:07:50.857Z,2.35
2018-12-23T12:10:18.406Z,3.47
2018-12-23T12:12:45.979Z,2.72
2018-12-23T12:15:13.615Z,2.62
2018-12-23T12:17:41.145Z,2.77
2018-12-23T12:20:08.690Z,2.70
2018-12-23T12:22:36.213Z,2.65
2018-12-23T12:25:03.953Z,2.42
2018-12-23T12:27:31.483Z,2.40
2018-12-23T12:29:59.028Z,2.33
2018-12-23T12:32:26.674Z,2.58
2018-12-23T12:34:54.233Z,2.67
2018-12-23T12:37:21.767Z,2.50
2018-12-23T12:39:49.314Z,1.87
2018-12-23T12:42:16.851Z,2.25
2018-12-23T12:44:44.403Z,2.37
2018-12-23T12:47:11.935Z,2.08
2018-12-23T12:49:39.491Z,2.30
2018-12-23T12:52:07.045Z,2.80
2018-12-23T12:54:34.630Z,2.98
2018-12-23T12:57:02.205Z,2.00
2018-12-23T12:59:29.760Z,2.40
2018-12-23T13:01:57.301Z,2.10
2018-12-23T13:04:24.831Z,2.20
2018-12-23T13:06:52.369Z,2.45
2018-12-23T13:09:19.905Z,2.40
2018-12-23T13:11:47.451Z,1.82
2018-12-23T13:14:14.982Z,2.37
2018-12-23T13:16:42.566Z,2.20
2018-12-23T13:19:10.095Z,2.40
2018-12-23T13:21:37.637Z,2.60
2018-12-23T13:24:05.162Z,2.70
2018-12-23T13:26:32.706Z,2.15
2018-12-23T13:29:00.270Z,2.05
2018-12-23T13:31:27.818Z,2.50
2018-12-23T13:33:55.352Z,1.90
2018-12-23T13:36:24.233Z,2.72
2018-12-23T13:38:52.057Z,2.02
2018-12-23T13:41:24.284Z,2.45
2018-12-23T13:47:44.456Z,2.40
2018-12-23T13:50:25.432Z,2.77
2018-12-23T13:53:06.751Z,1.87
2018-12-23T13:55:53.271Z,2.65
2018-12-23T13:59:02.017Z,2.70
2018-12-23T14:02:10.775Z,2.12
2018-12-23T14:05:18.132Z,2.20
2018-12-23T14:08:26.873Z,2.85
2018-12-23T14:11:34.241Z,2.92
2018-12-23T14:14:22.247Z,2.80
2018-12-23T14:17:02.715Z,2.70
2018-12-23T14:19:43.933Z,3.20
2018-12-23T14:22:25.140Z,3.10
2018-12-23T14:25:06.401Z,3.20
2018-12-23T14:27:45.683Z,4.03
2018-12-23T14:30:33.715Z,4.37
2018-12-23T14:33:21.803Z,3.00
2018-12-23T14:36:09.835Z,3.30
2018-12-23T14:38:57.920Z,4.47
2018-12-23T14:41:45.983Z,4.53
2018-12-23T14:44:33.995Z,3.40
2018-12-23T14:47:22.031Z,3.40
2018-12-23T14:50:10.051Z,3.60
2018-12-23T14:52:58.095Z,4.08
2018-12-23T14:55:46.196Z,3.27
2018-12-23T14:58:34.285Z,3.75
2018-12-23T15:01:22.319Z,3.72
2018-12-23T15:04:10.335Z,4.00
2018-12-23T15:06:58.425Z,3.83
2018-12-23T15:09:46.435Z,3.77
2018-12-23T15:12:34.477Z,5.95
2018-12-23T15:15:22.491Z,5.15
2018-12-23T15:18:03.475Z,5.72
2018-12-23T15:20:44.825Z,6.55
2018-12-23T15:23:26.468Z,5.60
2018-12-23T15:26:07.487Z,5.78
2018-12-23T15:28:49.046Z,6.28
2018-12-23T15:31:32.944Z,7.20
2018-12-23T15:34:13.692Z,6.03
2018-12-23T15:36:55.099Z,9.00
2018-12-23T15:39:42.490Z,8.85
2018-12-23T15:42:18.632Z,8.10
2018-12-23T15:44:59.227Z,9.33
2018-12-23T15:47:38.748Z,10.05
2018-12-23T15:50:26.758Z,8.48
2018-12-23T15:53:14.794Z,7.58
2018-12-23T15:56:02.827Z,7.97
2018-12-23T15:58:50.844Z,7.20
2018-12-23T16:01:38.877Z,6.67
2018-12-23T16:04:26.887Z,8.20
2018-12-23T16:07:14.927Z,10.82
2018-12-23T16:10:02.940Z,9.03
2018-12-23T16:12:51.001Z,8.60
2018-12-23T16:15:38.999Z,8.95
2018-12-23T16:18:19.827Z,10.23
2018-12-23T16:21:00.898Z,9.00
2018-12-23T16:23:42.052Z,7.10
2018-12-23T16:26:21.056Z,6.25
2018-12-23T16:29:09.070Z,5.40
2018-12-23T16:31:57.095Z,6.80
2018-12-23T16:34:45.119Z,5.80
2018-12-23T16:37:33.147Z,4.60
2018-12-23T16:40:21.172Z,5.35
2018-12-23T16:43:09.199Z,3.30
2018-12-23T16:45:57.223Z,4.95
2018-12-23T16:48:45.246Z,3.47
2018-12-23T16:51:33.285Z,3.83
2018-12-23T16:54:21.296Z,4.47
2018-12-23T16:57:09.335Z,4.70
2018-12-23T16:59:57.352Z,3.90
2018-12-23T17:02:45.379Z,3.98
2018-12-23T17:05:33.391Z,4.00
2018-12-23T17:08:21.473Z,3.58
2018-12-23T17:11:09.496Z,4.20
2018-12-23T17:13:57.527Z,4.50
2018-12-23T17:16:45.567Z,4.55
2018-12-23T17:19:33.596Z,4.70
2018-12-23T17:22:21.627Z,4.50
2018-12-23T17:25:09.644Z,4.80
2018-12-23T17:27:38.339Z,3.83
2018-12-23T17:30:26.351Z,4.35
2018-12-23T17:33:14.387Z,4.10
2018-12-23T17:36:02.399Z,4.80
2018-12-23T17:38:50.442Z,4.80
2018-12-23T17:41:38.455Z,5.17
2018-12-23T17:44:26.485Z,5.15
2018-12-23T17:47:14.527Z,5.87
2018-12-23T17:50:02.542Z,6.28
2018-12-23T17:52:50.571Z,6.97
2018-12-23T17:55:38.272Z,7.87
2018-12-23T17:58:25.979Z,6.00
2018-12-23T18:01:13.993Z,6.47
2018-12-23T18:04:02.397Z,5.83
2018-12-23T18:06:51.752Z,5.42
2018-12-23T18:09:39.787Z,5.17
2018-12-23T18:12:27.830Z,6.20
2018-12-23T18:15:15.839Z,6.75
2018-12-23T18:17:56.739Z,6.83
2018-12-23T18:20:37.964Z,5.72
2018-12-23T18:23:19.156Z,11.65
2018-12-23T18:26:00.448Z,12.43
2018-12-23T18:28:41.611Z,11.95
2018-12-23T18:31:22.931Z,12.63
2018-12-23T18:34:03.384Z,11.93
2018-12-23T18:36:44.563Z,12.03
2018-12-23T18:39:25.869Z,11.85
2018-12-23T18:42:07.044Z,14.85
2018-12-23T18:44:48.187Z,13.10
2018-12-23T18:47:29.404Z,12.75
2018-12-23T18:50:10.550Z,13.38
2018-12-23T18:52:51.176Z,14.38
2018-12-23T18:55:32.399Z,24.05
2018-12-23T18:58:13.899Z,22.30
2018-12-23T19:00:55.163Z,18.27
2018-12-23T19:03:36.196Z,13.88
2018-12-23T19:06:17.172Z,14.68
2018-12-23T19:08:59.614Z,12.43
2018-12-23T19:11:40.160Z,13.40
2018-12-23T19:14:21.355Z,12.53
2018-12-23T19:17:02.556Z,12.10
2018-12-23T19:19:43.063Z,8.58
2018-12-23T19:22:23.864Z,9.83
2018-12-23T19:25:04.951Z,10.10
2018-12-23T19:27:45.943Z,8.68
2018-12-23T19:30:26.788Z,8.25
2018-12-23T19:33:07.968Z,7.62
2018-12-23T19:35:49.013Z,6.55
2018-12-23T19:38:30.072Z,7.35
2018-12-23T19:41:11.520Z,8.50
2018-12-23T19:43:52.280Z,9.18
2018-12-23T19:46:33.222Z,11.20
2018-12-23T19:49:14.187Z,12.95
2018-12-23T19:51:54.997Z,12.82
2018-12-23T19:54:36.367Z,12.05
2018-12-23T19:57:17.304Z,10.88
2018-12-23T19:59:58.432Z,11.88
2018-12-23T20:02:39.720Z,10.98
2018-12-23T20:05:20.715Z,11.05
2018-12-23T20:08:01.503Z,9.25
2018-12-23T20:10:42.047Z,8.48
2018-12-23T20:13:22.964Z,9.93
2018-12-23T20:16:03.996Z,12.58
2018-12-23T20:18:45.326Z,9.33
2018-12-23T20:21:26.280Z,10.58
2018-12-23T20:24:07.480Z,10.93
2018-12-23T20:26:48.524Z,16.97
2018-12-23T20:29:29.341Z,16.07
2018-12-23T20:32:10.391Z,16.55
2018-12-23T20:34:50.964Z,22.35
2018-12-23T20:37:31.552Z,17.40
2018-12-23T20:40:12.799Z,19.87
2018-12-23T20:42:53.344Z,21.82
2018-12-23T20:45:34.584Z,17.35
2018-12-23T20:48:15.936Z,17.62
2018-12-23T20:50:56.923Z,17.90
2018-12-23T20:53:38.109Z,19.15
2018-12-23T20:56:19.026Z,17.12
2018-12-23T20:59:00.147Z,16.75
2018-12-23T21:02:07.510Z,14.50
2018-12-23T21:05:16.284Z,11.28
2018-12-23T21:08:23.648Z,10.28
2018-12-23T21:11:32.388Z,7.28
2018-12-23T21:14:39.751Z,7.95
2018-12-23T21:17:20.280Z,7.80
2018-12-23T21:20:01.213Z,8.35
2018-12-23T21:22:42.164Z,7.37
2018-12-23T21:25:23.020Z,6.50
2018-12-23T21:28:03.639Z,6.55
2018-12-23T21:30:44.631Z,7.28
2018-12-23T21:33:25.260Z,6.40
2018-12-23T21:36:06.451Z,8.03
2018-12-23T21:38:47.799Z,8.05
2018-12-23T21:41:28.788Z,9.33
2018-12-23T21:44:10.204Z,9.48
2018-12-23T21:46:51.386Z,8.10
2018-12-23T21:49:32.447Z,9.55
2018-12-23T21:52:13.814Z,9.83
2018-12-23T21:54:54.983Z,9.30
2018-12-23T21:57:35.981Z,8.90
2018-12-23T22:00:17.023Z,8.80
2018-12-23T22:02:57.899Z,8.90
2018-12-23T22:05:39.363Z,8.93
2018-12-23T22:08:20.476Z,8.73
2018-12-23T22:11:01.631Z,8.28
2018-12-23T22:13:42.848Z,9.03
2018-12-23T22:16:23.832Z,11.00
2018-12-23T22:19:05.188Z,8.30
2018-12-23T22:21:45.952Z,9.43
2018-12-23T22:24:27.165Z,8.88
2018-12-23T22:27:08.433Z,7.95
2018-12-23T22:29:48.994Z,6.95
2018-12-23T22:32:29.809Z,7.25
2018-12-23T22:35:10.852Z,7.30
2018-12-23T22:37:51.915Z,7.65
2018-12-23T22:40:33.063Z,8.48
2018-12-23T22:43:14.008Z,8.85
2018-12-23T22:45:55.272Z,8.95
2018-12-23T22:48:36.344Z,6.67
2018-12-23T22:51:17.186Z,6.08
2018-12-23T22:53:58.496Z,3.50
2018-12-23T22:56:39.261Z,4.25
2018-12-23T22:59:20.283Z,2.52
2018-12-23T23:02:00.955Z,2.22
2018-12-23T23:04:41.779Z,1.95
2018-12-23T23:07:23.148Z,2.77
2018-12-23T23:10:04.086Z,1.72
2018-12-23T23:12:45.238Z,2.10
2018-12-23T23:15:26.293Z,2.30
2018-12-23T23:18:07.159Z,1.82
2018-12-23T23:20:48.448Z,1.75
2018-12-23T23:23:29.760Z,2.55
2018-12-23T23:26:10.932Z,1.98
2018-12-23T23:28:52.279Z,1.57
2018-12-23T23:31:33.048Z,2.15
2018-12-23T23:34:14.362Z,1.80
2018-12-23T23:36:55.361Z,1.80
2018-12-23T23:39:36.219Z,2.90
2018-12-23T23:42:17.425Z,1.92
2018-12-23T23:44:58.264Z,1.92
2018-12-23T23:47:39.383Z,1.87
2018-12-23T23:50:20.752Z,1.90
2018-12-23T23:53:01.967Z,2.00
2018-12-23T23:55:43.192Z,2.22
2018-12-23T23:58:24.399Z,1.98
